Abergorlech, United Kingdom
Current Conditions -  °F | °C
As of 3:50 PM on Sunday 25 Jan 2015 (Local Time) from EGOP Reporting Station
Overcast Overcast  
Wind Chill: 41°   Ceiling: 300
Heat Index: 48°   Visibility: 1.8mi
Dew Point: 48°   Wind: 20mph
Humidity: 100%   Direction: 230°SW
Pressure: 30.36"   Gusts: NA
Location:  51.88°N, 4.27°W
Report Text: EGOP 251550Z AUTO 23017KT 2900 // OVC003/// 09/09 Q1028
Loading
Personal Weather Stations






























Interactive Weather Map New forecast layout! Learn more

10-Day Weather Forecast

Advertisements
Track Severe Weather on mobile